createdAt,value
2023-02-08T00:00:40.884Z,26.4
2023-02-08T00:04:40.847Z,24.03
2023-02-08T00:08:40.519Z,21.67
2023-02-08T00:12:40.588Z,21.77
2023-02-08T00:16:41.264Z,19.3
2023-02-08T00:20:40.921Z,22.4
2023-02-08T00:24:40.584Z,21.87
2023-02-08T00:28:40.595Z,21.27
2023-02-08T00:32:40.883Z,19.83
2023-02-08T00:36:40.449Z,18.1
2023-02-08T00:40:40.955Z,21.03
2023-02-08T00:44:40.690Z,19.93
2023-02-08T00:48:40.761Z,20.23
2023-02-08T00:52:40.505Z,21.5
2023-02-08T00:56:40.335Z,24.6
2023-02-08T01:00:40.931Z,21.33
2023-02-08T01:04:40.478Z,20.83
2023-02-08T01:08:40.609Z,22.3
2023-02-08T01:12:39.909Z,22.13
2023-02-08T01:16:40.453Z,24.5
2023-02-08T01:20:41.000Z,20.53
2023-02-08T01:24:40.361Z,21.73
2023-02-08T01:28:40.644Z,20.5
2023-02-08T01:32:40.601Z,19.83
2023-02-08T01:36:40.445Z,21.43
2023-02-08T01:40:40.793Z,20.1
2023-02-08T01:44:40.551Z,19.97
2023-02-08T01:48:40.518Z,19.1
2023-02-08T01:52:40.439Z,20.4
2023-02-08T01:56:39.908Z,19.2
2023-02-08T02:00:41.569Z,21
2023-02-08T02:04:40.593Z,19.7
2023-02-08T02:08:40.569Z,16.83
2023-02-08T02:12:40.582Z,19.07
2023-02-08T02:16:40.454Z,19
2023-02-08T02:20:41.209Z,18.67
2023-02-08T02:24:40.591Z,16.97
2023-02-08T02:28:40.530Z,17.17
2023-02-08T02:32:40.683Z,18
2023-02-08T02:36:40.331Z,17
2023-02-08T02:40:41.552Z,15.6
2023-02-08T02:44:40.456Z,15.43
2023-02-08T02:48:40.742Z,18.6
2023-02-08T02:52:40.340Z,18.23
2023-02-08T02:56:40.382Z,17.57
2023-02-08T03:00:41.093Z,17.47
2023-02-08T03:04:40.574Z,17.97
2023-02-08T03:08:40.618Z,18.47
2023-02-08T03:12:40.605Z,14.23
2023-02-08T03:16:41.286Z,17.13
2023-02-08T03:20:40.719Z,16.53
2023-02-08T03:24:40.520Z,16.43
2023-02-08T03:28:40.518Z,16.07
2023-02-08T03:32:40.599Z,15.97
2023-02-08T03:36:40.765Z,16.17
2023-02-08T03:40:40.899Z,15.8
2023-02-08T03:44:40.298Z,16.23
2023-02-08T03:48:40.452Z,16.4
2023-02-08T03:52:40.656Z,18.87
2023-02-08T03:56:40.369Z,18.57
2023-02-08T04:00:40.899Z,16.13
2023-02-08T04:04:39.754Z,17.97
2023-02-08T04:08:39.449Z,18
2023-02-08T04:12:40.506Z,21.1
2023-02-08T04:16:40.459Z,18.37
2023-02-08T04:20:40.936Z,17.8
2023-02-08T04:24:40.529Z,19
2023-02-08T04:28:40.479Z,19.7
2023-02-08T04:32:40.590Z,18.77
2023-02-08T04:36:40.381Z,17.57
2023-02-08T04:40:40.869Z,18.4
2023-02-08T04:44:40.718Z,17.63
2023-02-08T04:48:40.984Z,19.87
2023-02-08T04:52:40.523Z,17.8
2023-02-08T04:56:40.607Z,21.27
2023-02-08T05:00:40.785Z,20.07
2023-02-08T05:04:40.636Z,19.6
2023-02-08T05:08:41.185Z,19.1
2023-02-08T05:12:40.503Z,18.37
2023-02-08T05:16:40.443Z,20.07
2023-02-08T05:20:40.791Z,20.4
2023-02-08T05:24:40.654Z,19.6
2023-02-08T05:28:40.565Z,20
2023-02-08T05:32:40.654Z,21
2023-02-08T05:36:40.317Z,19.57
2023-02-08T05:40:41.000Z,21.2
2023-02-08T05:44:40.644Z,20.53
2023-02-08T05:48:39.532Z,20.7
2023-02-08T05:52:40.835Z,20.63
2023-02-08T05:56:40.428Z,21.6
2023-02-08T06:00:41.314Z,21.3
2023-02-08T06:04:40.409Z,22.07
2023-02-08T06:08:41.291Z,18.47
2023-02-08T06:12:40.509Z,17.73
2023-02-08T06:16:40.460Z,18.83
2023-02-08T06:20:40.816Z,17.23
2023-02-08T06:24:40.573Z,20.47
2023-02-08T06:28:40.558Z,19.8
2023-02-08T06:32:39.883Z,16.2
2023-02-08T06:36:40.394Z,19.87
2023-02-08T06:40:40.400Z,19.97
2023-02-08T06:44:51.411Z,18.77
2023-02-08T06:48:40.589Z,18.73
2023-02-08T06:52:40.570Z,20
2023-02-08T06:56:40.598Z,20.37
2023-02-08T07:00:41.380Z,21.67
2023-02-08T07:04:40.397Z,17.8
2023-02-08T07:08:40.483Z,22.47
2023-02-08T07:12:39.606Z,22.83
2023-02-08T07:16:40.578Z,21.03
2023-02-08T07:20:40.935Z,23
2023-02-08T07:24:40.229Z,22.1
2023-02-08T07:28:39.665Z,22.4
2023-02-08T07:32:41.008Z,22.4
2023-02-08T07:36:40.615Z,23.5
2023-02-08T07:40:41.745Z,22.97
2023-02-08T07:44:40.303Z,24.7
2023-02-08T07:48:40.641Z,23.9
2023-02-08T07:52:40.523Z,24.27
2023-02-08T07:56:41.135Z,23.97
2023-02-08T08:00:40.903Z,25.1
2023-02-08T08:04:40.749Z,24.17
2023-02-08T08:08:40.700Z,26.57
2023-02-08T08:12:41.006Z,25.43
2023-02-08T08:16:40.671Z,24.83
2023-02-08T08:20:40.927Z,28.3
2023-02-08T08:24:40.530Z,24.67
2023-02-08T08:28:40.813Z,26.17
2023-02-08T08:32:40.601Z,25.13
2023-02-08T08:36:40.655Z,24.57
2023-02-08T08:40:41.207Z,24.8
2023-02-08T08:44:40.554Z,22.83
2023-02-08T08:48:39.345Z,17.17
2023-02-08T08:52:40.474Z,24.43
2023-02-08T08:56:40.683Z,23.33
2023-02-08T09:00:41.105Z,21.37
2023-02-08T09:04:41.153Z,23.1
2023-02-08T09:08:40.514Z,22.33
2023-02-08T09:12:40.587Z,22.1
2023-02-08T09:16:40.424Z,20.73
2023-02-08T09:20:40.835Z,20.33
2023-02-08T09:24:40.463Z,17.3
2023-02-08T09:28:40.703Z,20.1
2023-02-08T09:32:40.744Z,20.67
2023-02-08T09:36:40.436Z,20.77
2023-02-08T09:40:40.990Z,17.8
2023-02-08T09:44:40.559Z,19.57
2023-02-08T09:48:40.748Z,18.07
2023-02-08T09:52:40.568Z,21.47
2023-02-08T09:56:40.612Z,17.8
2023-02-08T10:00:40.984Z,17.07
2023-02-08T10:04:39.944Z,18.07
2023-02-08T10:08:40.994Z,19.13
2023-02-08T10:12:40.928Z,17.8
2023-02-08T10:16:40.577Z,16.43
2023-02-08T10:20:40.693Z,17.47
2023-02-08T10:24:40.697Z,19.37
2023-02-08T10:28:40.618Z,19.1
2023-02-08T10:32:40.633Z,16.63
2023-02-08T10:36:40.530Z,17.57
2023-02-08T10:40:40.912Z,18.57
2023-02-08T10:44:40.918Z,19.13
2023-02-08T10:48:40.686Z,14.9
2023-02-08T10:52:40.350Z,14.47
2023-02-08T10:56:40.530Z,16.4
2023-02-08T11:00:40.754Z,16.63
2023-02-08T11:04:40.524Z,15.9
2023-02-08T11:08:40.495Z,15.27
2023-02-08T11:12:40.658Z,16.8
2023-02-08T11:16:40.540Z,17.27
2023-02-08T11:20:40.507Z,12.33
2023-02-08T11:24:40.515Z,14.8
2023-02-08T11:28:40.433Z,16.3
2023-02-08T11:32:40.881Z,14.27
2023-02-08T11:36:40.415Z,15.9
2023-02-08T11:40:39.896Z,14.37
2023-02-08T11:44:40.533Z,14.77
2023-02-08T11:48:40.536Z,15.73
2023-02-08T11:52:41.183Z,14.83
2023-02-08T11:56:40.478Z,15.73
2023-02-08T12:00:41.061Z,12.8
2023-02-08T12:04:40.554Z,13
2023-02-08T12:08:40.485Z,11.93
2023-02-08T12:12:40.470Z,11.43
2023-02-08T12:16:41.272Z,13.3
2023-02-08T12:20:40.613Z,9.83
2023-02-08T12:24:40.455Z,11.47
2023-02-08T12:28:40.463Z,9.43
2023-02-08T12:32:41.755Z,8.9
2023-02-08T12:36:40.683Z,9.03
2023-02-08T12:40:40.728Z,10.07
2023-02-08T12:44:40.524Z,8.4
2023-02-08T12:48:41.279Z,8.7
2023-02-08T12:52:40.809Z,9.13
2023-02-08T12:56:40.575Z,8.67
2023-02-08T13:00:40.777Z,10.17
2023-02-08T13:04:40.619Z,8.5
2023-02-08T13:08:40.571Z,8.13
2023-02-08T13:12:40.378Z,8.37
2023-02-08T13:16:40.830Z,8.7
2023-02-08T13:20:40.641Z,8.6
2023-02-08T13:24:40.522Z,8.57
2023-02-08T13:28:41.041Z,7.93
2023-02-08T13:32:43.583Z,7.6
2023-02-08T13:36:40.611Z,7.23
2023-02-08T13:40:40.562Z,8.3
2023-02-08T13:44:40.549Z,8
2023-02-08T13:48:40.505Z,7.93
2023-02-08T13:52:47.960Z,6
2023-02-08T13:56:40.434Z,7.47
2023-02-08T14:00:40.722Z,8.13
2023-02-08T14:04:40.483Z,7.93
2023-02-08T14:08:40.295Z,7.07
2023-02-08T14:12:41.005Z,7.73
2023-02-08T14:16:40.742Z,7.27
2023-02-08T14:20:40.692Z,7.87
2023-02-08T14:24:40.756Z,9.3
2023-02-08T14:28:40.554Z,7.07
2023-02-08T14:32:40.413Z,6.87
2023-02-08T14:36:40.316Z,7.73
2023-02-08T14:40:40.849Z,6.87
2023-02-08T14:44:40.564Z,6.7
2023-02-08T14:48:40.611Z,4.97
2023-02-08T14:52:40.668Z,7
2023-02-08T14:56:40.347Z,7.43
2023-02-08T15:00:40.812Z,7.13
2023-02-08T15:04:40.512Z,6.15
2023-02-08T15:08:40.331Z,5.87
2023-02-08T15:12:40.456Z,6.97
2023-02-08T15:16:40.436Z,6.32
2023-02-08T15:20:40.618Z,7.25
2023-02-08T15:24:40.928Z,5.9
2023-02-08T15:28:40.464Z,5.97
2023-02-08T15:32:40.039Z,5.87
2023-02-08T15:36:40.569Z,6.27
2023-02-08T15:40:40.416Z,5.9
2023-02-08T15:44:40.654Z,5.47
2023-02-08T15:48:40.286Z,7.47
2023-02-08T15:52:40.182Z,6.8
2023-02-08T15:56:42.485Z,7.77
2023-02-08T16:00:40.670Z,6.77
2023-02-08T16:04:40.605Z,8.3
2023-02-08T16:08:40.514Z,7.27
2023-02-08T16:12:40.346Z,8.93
2023-02-08T16:16:40.452Z,7.93
2023-02-08T16:20:40.715Z,9.8
2023-02-08T16:24:40.925Z,8.9
2023-02-08T16:28:40.602Z,9.03
2023-02-08T16:32:40.876Z,10.4
2023-02-08T16:36:40.654Z,10.5
2023-02-08T16:40:40.837Z,9.67
2023-02-08T16:44:40.528Z,9.9
2023-02-08T16:48:41.020Z,9.13
2023-02-08T16:52:40.455Z,9.17
2023-02-08T16:56:40.454Z,9.93
2023-02-08T17:00:40.645Z,9.63
2023-02-08T17:04:40.866Z,8.1
2023-02-08T17:08:41.259Z,8.03
2023-02-08T17:12:40.700Z,8.73
2023-02-08T17:16:40.755Z,8.33
2023-02-08T17:20:40.550Z,9.17
2023-02-08T17:24:40.572Z,8.8
2023-02-08T17:28:40.573Z,9.53
2023-02-08T17:32:40.849Z,10.2
2023-02-08T17:36:42.777Z,11.23
2023-02-08T17:40:40.588Z,10.93
2023-02-08T17:44:40.621Z,11.9
2023-02-08T17:48:40.744Z,11.13
2023-02-08T17:52:41.078Z,11
2023-02-08T17:56:41.240Z,8.63
2023-02-08T18:00:41.439Z,9.1
2023-02-08T18:04:40.605Z,10.57
2023-02-08T18:08:40.567Z,9.93
2023-02-08T18:12:40.525Z,9.37
2023-02-08T18:16:40.530Z,10.03
2023-02-08T18:20:40.946Z,9.83
2023-02-08T18:24:40.522Z,9.93
2023-02-08T18:28:40.299Z,8.73
2023-02-08T18:32:39.507Z,8.27
2023-02-08T18:36:40.465Z,8.2
2023-02-08T18:40:40.548Z,7.93
2023-02-08T18:44:40.925Z,8.5
2023-02-08T18:48:40.518Z,9.57
2023-02-08T18:52:40.464Z,9.27
2023-02-08T18:56:40.288Z,10.3
2023-02-08T19:00:41.436Z,8.87
2023-02-08T19:04:40.559Z,10.13
2023-02-08T19:08:40.448Z,9.9
2023-02-08T19:12:40.600Z,9.37
2023-02-08T19:16:40.636Z,11.7
2023-02-08T19:20:40.534Z,9.73
2023-02-08T19:24:40.471Z,9.87
2023-02-08T19:28:40.499Z,10.93
2023-02-08T19:32:40.644Z,10.13
2023-02-08T19:36:40.500Z,9.13
2023-02-08T19:40:40.322Z,9
2023-02-08T19:44:40.360Z,11.27
2023-02-08T19:48:41.035Z,10.63
2023-02-08T19:52:40.605Z,11.63
2023-02-08T19:56:40.534Z,9.53
2023-02-08T20:00:40.922Z,10.93
2023-02-08T20:04:40.602Z,9.87
2023-02-08T20:08:40.482Z,11.5
2023-02-08T20:12:40.488Z,9.93
2023-02-08T20:16:40.630Z,10
2023-02-08T20:20:40.581Z,10.2
2023-02-08T20:24:40.488Z,9.03
2023-02-08T20:28:40.482Z,10.8
2023-02-08T20:32:40.465Z,9.23
2023-02-08T20:36:40.552Z,20.17
2023-02-08T20:40:40.687Z,10
2023-02-08T20:44:40.488Z,9.67
2023-02-08T20:48:40.549Z,9.43
2023-02-08T20:52:40.586Z,10.97
2023-02-08T20:56:40.603Z,9.93
2023-02-08T21:00:43.518Z,9.67
2023-02-08T21:04:40.562Z,8.6
2023-02-08T21:08:40.164Z,9.27
2023-02-08T21:12:40.500Z,9.63
2023-02-08T21:16:39.905Z,10.23
2023-02-08T21:20:40.606Z,10.93
2023-02-08T21:24:40.552Z,9.87
2023-02-08T21:28:40.884Z,9.2
2023-02-08T21:32:40.726Z,9.83
2023-02-08T21:36:40.599Z,9.73
2023-02-08T21:40:40.567Z,10.17
2023-02-08T21:44:40.567Z,9.63
2023-02-08T21:48:40.384Z,9.23
2023-02-08T21:52:40.496Z,11
2023-02-08T21:56:40.558Z,11.53
2023-02-08T22:00:41.199Z,10.57
2023-02-08T22:04:40.347Z,10.33
2023-02-08T22:08:40.677Z,10.33
2023-02-08T22:12:40.372Z,11.63
2023-02-08T22:16:40.690Z,9.73
2023-02-08T22:20:40.488Z,10.07
2023-02-08T22:24:40.542Z,11.2
2023-02-08T22:28:40.538Z,12.43
2023-02-08T22:32:40.829Z,10.33
2023-02-08T22:36:40.320Z,11.07
2023-02-08T22:40:40.472Z,11.37
2023-02-08T22:44:39.945Z,10.93
2023-02-08T22:48:40.546Z,12.27
2023-02-08T22:52:40.561Z,11.87
2023-02-08T22:56:40.313Z,10.87
2023-02-08T23:00:40.762Z,10.9
2023-02-08T23:04:39.435Z,11.33
2023-02-08T23:08:40.110Z,10.47
2023-02-08T23:12:39.869Z,10.7
2023-02-08T23:16:40.631Z,10.63
2023-02-08T23:20:40.881Z,10.67
2023-02-08T23:24:40.469Z,10.83
2023-02-08T23:28:40.530Z,10.6
2023-02-08T23:32:39.579Z,9.87
2023-02-08T23:36:40.765Z,10.6
2023-02-08T23:40:40.627Z,10.2
2023-02-08T23:44:39.772Z,11.83
2023-02-08T23:48:40.306Z,9.73
2023-02-08T23:52:40.449Z,10.3
2023-02-08T23:56:40.916Z,10.37
